Time;durP1;ratioP1;P1;durP2;ratioP2;P2;SDS_P1;SDS_P2;PMS_P1;PMS_P2;Temp;Humidity;BMP_temperature;BMP_pressure;BME280_temperature;BME280_humidity;BME280_pressure;Samples;Min_cycle;Max_cycle;Signal;HPM_P1;HPM_P2
2022/08/30 00:03:22;;;;;;;15.10;11.00;;;15.40;62.30;;;;;;4981575;28;46612;-67
2022/08/30 00:05:48;;;;;;;16.30;10.30;;;15.40;63.30;;;;;;4983038;28;46106;-67
2022/08/30 00:08:15;;;;;;;21.33;11.67;;;15.30;63.30;;;;;;4982132;28;46434;-67
2022/08/30 00:10:43;;;;;;;21.23;11.50;;;15.30;63.20;;;;;;4981931;28;46285;-67
2022/08/30 00:13:11;;;;;;;18.70;11.53;;;15.30;62.40;;;;;;4980126;28;46613;-67
2022/08/30 00:15:37;;;;;;;18.03;10.43;;;15.40;63.50;;;;;;4982157;28;46332;-66
2022/08/30 00:18:03;;;;;;;15.47;10.33;;;15.30;63.50;;;;;;4981467;28;46463;-68
2022/08/30 00:20:31;;;;;;;13.83;9.40;;;15.30;63.50;;;;;;4981913;28;46579;-68
2022/08/30 00:22:57;;;;;;;14.10;9.17;;;15.30;63.60;;;;;;4979836;28;47346;-67
2022/08/30 00:25:23;;;;;;;16.77;10.10;;;15.20;63.90;;;;;;4981230;28;46415;-68
2022/08/30 00:27:49;;;;;;;13.60;10.00;;;15.10;64.10;;;;;;4981538;28;46618;-69
2022/08/30 00:30:16;;;;;;;13.80;10.30;;;15.00;64.40;;;;;;4981454;28;46388;-68
2022/08/30 00:32:42;;;;;;;13.10;9.70;;;14.50;64.00;;;;;;4981603;28;47223;-68
2022/08/30 00:35:10;;;;;;;16.53;10.50;;;14.90;64.40;;;;;;4981392;28;46324;-67
2022/08/30 00:37:36;;;;;;;20.73;11.30;;;14.90;64.40;;;;;;4980953;28;45792;-68
2022/08/30 00:40:04;;;;;;;18.87;10.70;;;14.90;64.30;;;;;;4980038;28;46514;-68
2022/08/30 00:42:30;;;;;;;16.87;11.10;;;14.90;64.30;;;;;;4980403;28;47147;-67
2022/08/30 00:44:56;;;;;;;18.27;12.10;;;15.00;64.50;;;;;;4981546;28;46419;-67
2022/08/30 00:47:22;;;;;;;22.83;11.33;;;15.00;64.30;;;;;;4978946;28;46425;-68
2022/08/30 00:49:52;;;;;;;17.90;10.03;;;15.00;64.30;;;;;;4982259;28;46454;-68
2022/08/30 00:52:21;;;;;;;22.73;12.77;;;14.90;64.40;;;;;;4980191;28;46401;-67
2022/08/30 00:54:49;;;;;;;18.80;12.33;;;15.00;64.50;;;;;;4981166;28;46349;-68
2022/08/30 00:57:15;;;;;;;21.70;13.03;;;14.90;64.70;;;;;;4980378;28;46336;-68
2022/08/30 00:59:43;;;;;;;21.40;13.27;;;14.90;64.70;;;;;;4979319;28;46450;-68
2022/08/30 01:02:09;;;;;;;20.13;12.83;;;14.90;63.70;;;;;;4980869;28;47438;-69
2022/08/30 01:04:36;;;;;;;18.73;13.30;;;14.90;64.60;;;;;;4981123;28;46808;-68
2022/08/30 01:07:02;;;;;;;18.00;11.43;;;14.90;64.80;;;;;;4980658;28;46403;-68
2022/08/30 01:09:28;;;;;;;18.00;11.40;;;15.00;64.80;;;;;;4980131;28;46593;-68
2022/08/30 01:11:55;;;;;;;19.17;11.93;;;14.90;64.80;;;;;;4980523;28;46836;-68
2022/08/30 01:14:21;;;;;;;26.53;12.40;;;14.90;65.00;;;;;;4980681;28;46369;-68
2022/08/30 01:16:48;;;;;;;24.00;12.00;;;14.90;64.80;;;;;;4981038;28;46384;-67
2022/08/30 01:19:44;;;;;;;19.50;12.53;;;14.90;64.90;;;;;;4979871;28;46581;-68
2022/08/30 01:22:34;;;;;;;18.87;12.37;;;14.90;64.90;;;;;;4980571;28;46281;-67
2022/08/30 01:25:02;;;;;;;18.93;11.60;;;14.90;64.90;;;;;;4980955;28;46407;-67
2022/08/30 01:27:30;;;;;;;16.80;11.90;;;14.90;64.80;;;;;;4978658;28;46387;-68
2022/08/30 01:29:57;;;;;;;17.17;11.90;;;14.80;64.70;;;;;;4979883;28;46372;-68
2022/08/30 01:32:27;;;;;;;19.73;12.53;;;14.90;64.90;;;;;;4980482;28;46486;-68
2022/08/30 01:34:54;;;;;;;16.20;10.77;;;14.80;65.00;;;;;;4979806;28;46435;-68
2022/08/30 01:37:27;;;;;;;15.57;10.73;;;14.80;65.20;;;;;;4980154;28;46440;-69
2022/08/30 01:39:53;;;;;;;16.10;10.47;;;14.80;65.20;;;;;;4980168;28;46325;-69
2022/08/30 01:42:19;;;;;;;20.03;9.40;;;14.80;65.30;;;;;;4978952;28;46271;-69
2022/08/30 01:44:46;;;;;;;15.10;10.53;;;14.70;65.40;;;;;;4978958;28;45833;-68
2022/08/30 01:47:12;;;;;;;18.07;10.17;;;14.70;65.40;;;;;;4979577;28;46360;-68
2022/08/30 01:49:38;;;;;;;13.30;9.73;;;14.60;65.40;;;;;;4980474;28;46639;-69
2022/08/30 01:52:05;;;;;;;15.03;9.67;;;14.50;64.70;;;;;;4979731;28;46252;-68
2022/08/30 01:54:35;;;;;;;18.60;10.67;;;14.50;65.70;;;;;;4978672;28;46090;-69
2022/08/30 01:57:01;;;;;;;17.70;10.60;;;14.50;65.70;;;;;;4978128;28;46378;-69
2022/08/30 01:59:27;;;;;;;16.83;10.03;;;14.50;65.60;;;;;;4977251;28;46513;-68
2022/08/30 02:01:53;;;;;;;22.97;10.47;;;14.50;65.40;;;;;;4975859;28;46817;-68
2022/08/30 02:04:18;;;;;;;22.17;10.60;;;14.60;65.40;;;;;;4978404;28;46514;-68
2022/08/30 02:06:44;;;;;;;18.53;11.20;;;14.50;65.40;;;;;;4977677;28;47260;-67
2022/08/30 02:09:11;;;;;;;18.10;10.40;;;14.60;65.50;;;;;;4972946;28;46188;-67
2022/08/30 02:11:37;;;;;;;18.20;10.17;;;14.60;64.50;;;;;;4977364;28;46685;-68
2022/08/30 02:14:03;;;;;;;17.63;11.10;;;14.60;65.50;;;;;;4976544;28;46700;-68
2022/08/30 02:16:29;;;;;;;19.30;9.93;;;14.60;65.50;;;;;;4977997;28;46111;-67
2022/08/30 02:18:56;;;;;;;15.67;10.53;;;14.50;65.50;;;;;;4978442;28;46487;-70
2022/08/30 02:21:22;;;;;;;13.20;9.87;;;14.50;64.60;;;;;;4979185;28;46313;-68
2022/08/30 02:23:48;;;;;;;18.87;11.90;;;14.50;65.70;;;;;;4978218;28;45902;-68
2022/08/30 02:26:15;;;;;;;25.70;14.73;;;14.50;65.60;;;;;;4977790;28;46442;-68
2022/08/30 02:28:41;;;;;;;18.67;13.47;;;14.50;65.60;;;;;;4977334;28;46502;-69
2022/08/30 02:31:06;;;;;;;19.87;14.07;;;14.50;65.70;;;;;;4978499;28;46484;-67
2022/08/30 02:33:32;;;;;;;19.67;11.73;;;14.40;64.70;;;;;;4977784;28;46400;-68
2022/08/30 02:35:58;;;;;;;18.60;12.90;;;14.40;65.80;;;;;;4978873;28;46366;-67
2022/08/30 02:38:24;;;;;;;19.97;14.40;;;14.40;65.90;;;;;;4978704;28;46469;-67
2022/08/30 02:40:50;;;;;;;28.53;13.30;;;14.40;65.90;;;;;;4979687;28;46405;-67
2022/08/30 02:43:17;;;;;;;19.87;11.90;;;14.30;64.90;;;;;;4978474;28;46440;-68
2022/08/30 02:45:43;;;;;;;17.83;11.20;;;14.30;65.90;;;;;;4979547;28;46862;-67
2022/08/30 02:48:08;;;;;;;16.30;11.30;;;14.30;65.90;;;;;;4979185;28;46391;-68
2022/08/30 02:50:37;;;;;;;18.37;10.27;;;14.30;66.10;;;;;;4979281;28;47188;-69
2022/08/30 02:53:03;;;;;;;16.90;11.73;;;14.30;65.90;;;;;;4980180;28;46357;-69
2022/08/30 02:55:28;;;;;;;17.97;11.20;;;14.20;65.80;;;;;;4979235;28;46713;-69
2022/08/30 02:57:54;;;;;;;17.23;11.10;;;14.30;65.90;;;;;;4962186;28;47493;-68
2022/08/30 03:00:20;;;;;;;16.60;12.40;;;14.20;65.90;;;;;;4969617;28;46759;-69
2022/08/30 03:02:46;;;;;;;17.23;11.33;;;14.20;65.10;;;;;;4970966;28;51108;-68
2022/08/30 03:05:13;;;;;;;19.70;11.07;;;14.20;66.00;;;;;;4978221;28;46560;-67
2022/08/30 03:07:41;;;;;;;16.43;11.20;;;14.20;66.10;;;;;;4981358;28;46561;-68
2022/08/30 03:10:07;;;;;;;16.70;11.47;;;14.20;66.20;;;;;;4976851;28;49104;-68
2022/08/30 03:12:32;;;;;;;22.10;12.10;;;14.20;66.10;;;;;;4982018;28;46249;-68
2022/08/30 03:14:58;;;;;;;16.77;12.10;;;14.20;66.20;;;;;;4982660;28;46261;-67
2022/08/30 03:17:24;;;;;;;19.40;10.80;;;14.30;66.20;;;;;;4981466;28;46447;-68
2022/08/30 03:19:50;;;;;;;16.10;11.57;;;14.20;66.20;;;;;;4981649;28;47226;-68
2022/08/30 03:22:16;;;;;;;16.77;11.00;;;14.20;66.40;;;;;;4982368;28;46265;-68
2022/08/30 03:24:41;;;;;;;18.83;11.20;;;14.20;66.50;;;;;;4982271;28;46226;-69
2022/08/30 03:27:07;;;;;;;16.07;10.50;;;14.20;66.60;;;;;;4975418;28;46591;-68
2022/08/30 03:29:33;;;;;;;15.90;11.10;;;14.10;66.80;;;;;;4980108;28;46418;-67
2022/08/30 03:31:59;;;;;;;15.33;10.33;;;14.10;66.90;;;;;;4980966;28;46553;-67
2022/08/30 03:34:25;;;;;;;16.47;10.80;;;14.10;67.30;;;;;;4978594;28;45889;-66
2022/08/30 03:36:52;;;;;;;20.40;11.80;;;14.10;66.90;;;;;;4978621;28;47395;-66
2022/08/30 03:39:18;;;;;;;17.10;10.90;;;14.10;66.70;;;;;;4980674;28;47199;-68
2022/08/30 03:41:44;;;;;;;17.80;10.77;;;14.10;65.80;;;;;;4980348;28;46624;-69
2022/08/30 03:44:10;;;;;;;17.30;9.10;;;14.10;66.80;;;;;;4979871;28;46442;-68
2022/08/30 03:46:37;;;;;;;17.00;9.87;;;14.10;66.90;;;;;;4977223;28;46590;-68
2022/08/30 03:49:03;;;;;;;19.90;11.10;;;14.00;66.80;;;;;;4981194;28;46722;-69
2022/08/30 03:51:28;;;;;;;17.63;11.67;;;14.00;65.80;;;;;;4979445;28;46355;-67
2022/08/30 03:53:54;;;;;;;18.30;11.10;;;14.10;66.80;;;;;;4979979;28;46406;-67
2022/08/30 03:56:19;;;;;;;14.63;10.80;;;14.00;66.80;;;;;;4980546;28;46479;-67
2022/08/30 03:58:45;;;;;;;17.70;11.10;;;14.00;66.70;;;;;;4980162;28;47006;-68
2022/08/30 04:01:11;;;;;;;14.60;9.97;;;14.00;67.00;;;;;;4978623;28;46320;-69
2022/08/30 04:03:37;;;;;;;19.80;10.70;;;13.90;65.90;;;;;;4979438;28;46669;-69
2022/08/30 04:06:03;;;;;;;14.63;9.60;;;13.90;67.30;;;;;;4980339;28;46407;-69
2022/08/30 04:08:29;;;;;;;12.97;8.37;;;13.80;67.50;;;;;;4980204;28;47601;-69
2022/08/30 04:10:55;;;;;;;13.80;8.43;;;13.70;67.60;;;;;;4979455;28;45905;-68
2022/08/30 04:13:21;;;;;;;13.30;9.27;;;13.60;66.70;;;;;;4980879;28;46382;-68
2022/08/30 04:15:47;;;;;;;16.10;8.50;;;13.60;67.80;;;;;;4979920;28;46953;-68
2022/08/30 04:18:13;;;;;;;13.10;8.93;;;13.50;67.60;;;;;;4980648;28;46459;-69
2022/08/30 04:20:38;;;;;;;22.70;9.83;;;13.60;67.70;;;;;;4980278;28;46495;-68
2022/08/30 04:23:08;;;;;;;17.27;10.70;;;13.60;66.40;;;;;;4979880;28;46004;-68
2022/08/30 04:25:34;;;;;;;23.97;9.90;;;13.60;67.20;;;;;;4981117;28;46452;-68
2022/08/30 04:28:00;;;;;;;13.30;9.90;;;13.70;67.00;;;;;;4978811;28;46558;-69
2022/08/30 04:30:26;;;;;;;13.80;10.20;;;13.70;67.00;;;;;;4980029;28;46357;-69
2022/08/30 04:32:52;;;;;;;13.37;9.80;;;13.70;66.80;;;;;;4979090;28;46674;-68
2022/08/30 04:35:19;;;;;;;13.77;9.83;;;13.70;66.70;;;;;;4980802;28;46324;-69
2022/08/30 04:37:45;;;;;;;13.90;8.57;;;13.80;66.90;;;;;;4980366;28;48659;-69
2022/08/30 04:40:11;;;;;;;15.37;10.03;;;13.80;66.80;;;;;;4981121;28;46465;-70
2022/08/30 04:42:37;;;;;;;15.00;9.40;;;13.80;66.80;;;;;;4981249;28;46277;-69
2022/08/30 04:45:11;;;;;;;15.20;8.70;;;13.80;66.80;;;;;;4981108;28;46322;-69
2022/08/30 04:47:38;;;;;;;12.40;9.07;;;13.80;66.80;;;;;;4978734;28;46419;-69
2022/08/30 04:50:05;;;;;;;12.83;9.33;;;13.80;66.50;;;;;;4980773;28;46521;-70
2022/08/30 04:52:31;;;;;;;14.30;9.50;;;13.90;66.40;;;;;;4980753;28;46492;-69
2022/08/30 04:54:58;;;;;;;15.83;10.17;;;14.00;66.40;;;;;;4982681;28;46589;-69
2022/08/30 04:57:25;;;;;;;15.93;10.10;;;14.00;66.40;;;;;;4982229;28;46475;-69
2022/08/30 04:59:51;;;;;;;17.43;10.10;;;14.00;66.20;;;;;;4980885;28;46515;-69
2022/08/30 05:02:17;;;;;;;15.23;9.10;;;14.10;66.00;;;;;;4981280;28;46452;-69
2022/08/30 05:05:38;;;;;;;14.30;9.90;;;14.20;66.00;;;;;;4981268;28;46339;-68
2022/08/30 05:07:29;;;;;;;20.87;11.50;;;14.30;65.80;;;;;;4978680;28;46570;-67
2022/08/30 05:09:55;;;;;;;19.20;11.20;;;14.40;65.90;;;;;;4985996;28;46242;-68
2022/08/30 05:12:21;;;;;;;20.80;12.93;;;14.40;65.60;;;;;;4979788;28;46676;-68
2022/08/30 05:14:47;;;;;;;21.97;13.70;;;14.60;65.30;;;;;;4980209;28;46634;-69
2022/08/30 05:17:12;;;;;;;20.40;12.90;;;14.60;65.20;;;;;;4979271;28;46899;-69
2022/08/30 05:19:38;;;;;;;23.90;14.00;;;14.80;65.30;;;;;;4980468;28;46483;-69
2022/08/30 05:22:03;;;;;;;20.70;12.40;;;14.90;65.10;;;;;;4980960;28;46475;-69
2022/08/30 05:24:30;;;;;;;19.23;14.07;;;15.00;64.80;;;;;;4980160;28;46505;-69
2022/08/30 05:26:57;;;;;;;15.70;11.20;;;15.50;64.00;;;;;;4979505;28;46641;-69
2022/08/30 05:29:23;;;;;;;16.50;9.83;;;16.30;64.10;;;;;;4979885;28;46513;-68
2022/08/30 05:31:49;;;;;;;12.57;9.57;;;17.00;64.10;;;;;;4979171;28;46352;-69
2022/08/30 05:34:16;;;;;;;11.27;8.63;;;17.70;63.30;;;;;;4980417;28;46589;-68
2022/08/30 05:36:41;;;;;;;11.00;8.20;;;18.30;61.90;;;;;;4979272;28;47180;-68
2022/08/30 05:39:08;;;;;;;13.10;8.50;;;18.90;61.00;;;;;;4980459;28;46646;-69
2022/08/30 05:41:34;;;;;;;12.07;8.00;;;19.30;60.10;;;;;;4980164;28;46497;-68
2022/08/30 05:44:01;;;;;;;10.60;8.17;;;19.80;59.80;;;;;;4980166;28;46651;-69
2022/08/30 05:46:31;;;;;;;15.60;10.43;;;20.30;58.10;;;;;;4979689;28;46659;-70
2022/08/30 05:49:02;;;;;;;23.63;9.57;;;20.80;56.80;;;;;;4979600;28;45724;-69
2022/08/30 05:51:28;;;;;;;13.20;8.37;;;21.60;54.40;;;;;;4977426;28;46259;-70
2022/08/30 05:53:55;;;;;;;12.20;8.70;;;21.60;55.00;;;;;;4980055;28;46658;-69
2022/08/30 05:56:27;;;;;;;13.37;8.23;;;22.00;54.00;;;;;;4980389;28;46349;-70
2022/08/30 05:58:53;;;;;;;10.67;8.47;;;22.30;53.10;;;;;;4978892;28;46664;-69
2022/08/30 06:01:28;;;;;;;12.90;7.20;;;22.90;49.20;;;;;;4980388;28;46309;-71
2022/08/30 06:03:55;;;;;;;15.10;8.30;;;22.90;50.40;;;;;;4979932;28;46409;-70
2022/08/30 06:06:21;;;;;;;14.17;8.00;;;23.20;48.10;;;;;;4979923;28;46691;-68
2022/08/30 06:08:48;;;;;;;12.47;7.77;;;23.40;45.90;;;;;;4979194;28;46599;-71
2022/08/30 06:11:17;;;;;;;10.70;7.83;;;23.70;44.30;;;;;;4980489;28;46509;-69
2022/08/30 06:13:42;;;;;;;8.83;7.47;;;23.90;42.40;;;;;;4980500;28;46792;-69
2022/08/30 06:16:11;;;;;;;11.27;7.53;;;23.80;41.20;;;;;;4978352;28;46457;-69
2022/08/30 06:18:37;;;;;;;11.33;8.10;;;23.50;40.70;;;;;;4975387;28;46633;-68
2022/08/30 06:21:02;;;;;;;10.40;8.40;;;22.70;42.70;;;;;;4980201;28;45873;-70
2022/08/30 06:23:29;;;;;;;13.80;9.20;;;21.90;44.60;;;;;;4978166;28;45975;-69
2022/08/30 06:25:55;;;;;;;10.50;7.70;;;21.50;46.10;;;;;;4978497;28;47081;-69
2022/08/30 06:28:20;;;;;;;12.57;9.03;;;21.00;47.80;;;;;;4979345;28;46526;-69
2022/08/30 06:30:46;;;;;;;9.40;7.40;;;20.80;49.10;;;;;;4980207;28;46375;-69
2022/08/30 06:33:12;;;;;;;12.87;7.43;;;21.30;47.50;;;;;;4978414;28;46490;-70
2022/08/30 06:35:38;;;;;;;18.33;8.63;;;22.00;44.00;;;;;;4979908;28;47091;-70
2022/08/30 06:38:04;;;;;;;12.00;8.30;;;22.10;44.00;;;;;;4978043;28;46672;-71
2022/08/30 06:40:29;;;;;;;11.33;8.57;;;21.60;45.10;;;;;;4979319;28;46443;-70
2022/08/30 06:42:55;;;;;;;13.50;9.40;;;21.30;46.80;;;;;;4981236;28;46327;-69
2022/08/30 06:45:21;;;;;;;13.50;9.20;;;21.00;47.70;;;;;;4980632;28;49252;-69
2022/08/30 06:47:47;;;;;;;12.40;9.17;;;20.90;48.40;;;;;;4982943;28;46420;-71
2022/08/30 06:50:15;;;;;;;12.87;9.57;;;20.90;48.50;;;;;;4983634;28;46428;-70
2022/08/30 06:52:42;;;;;;;14.57;9.37;;;20.90;48.40;;;;;;4988288;28;46403;-71
2022/08/30 06:55:11;;;;;;;14.20;10.30;;;20.90;48.50;;;;;;4982689;28;46817;-69
2022/08/30 06:57:36;;;;;;;13.70;9.33;;;21.00;48.50;;;;;;4982339;28;46328;-70
2022/08/30 07:00:05;;;;;;;16.43;9.30;;;21.10;48.70;;;;;;4982907;28;46577;-70
2022/08/30 07:02:31;;;;;;;12.10;9.10;;;21.10;48.70;;;;;;4982950;28;46364;-69
2022/08/30 07:04:56;;;;;;;17.33;9.60;;;21.20;48.80;;;;;;4982867;28;46470;-69
2022/08/30 07:07:22;;;;;;;12.30;9.30;;;21.20;48.80;;;;;;4982290;28;46567;-69
2022/08/30 07:09:48;;;;;;;16.73;8.63;;;21.30;48.90;;;;;;4982802;28;46451;-69
2022/08/30 07:12:14;;;;;;;12.83;9.50;;;21.50;49.00;;;;;;4981217;28;46457;-69
2022/08/30 07:14:41;;;;;;;13.30;8.90;;;21.90;50.60;;;;;;4980906;28;46615;-69
2022/08/30 07:19:52;;;;;;;15.07;10.23;;;21.50;49.10;;;;;;4982480;28;46391;-70
2022/08/30 07:22:19;;;;;;;16.57;10.03;;;21.50;49.10;;;;;;4983968;28;46603;-69
2022/08/30 07:24:45;;;;;;;12.50;9.53;;;21.70;49.20;;;;;;4980854;28;46312;-69
2022/08/30 07:27:11;;;;;;;14.93;9.30;;;21.90;49.40;;;;;;4982342;28;46495;-69
2022/08/30 07:29:36;;;;;;;13.53;9.80;;;21.90;49.10;;;;;;4982156;28;46767;-70
2022/08/30 07:32:02;;;;;;;12.97;9.43;;;22.10;48.70;;;;;;4982908;28;46555;-70
2022/08/30 07:34:28;;;;;;;12.47;9.13;;;22.30;48.40;;;;;;4981749;28;46451;-70
2022/08/30 07:36:53;;;;;;;20.40;9.73;;;22.40;48.20;;;;;;4981357;28;46501;-69
2022/08/30 07:39:19;;;;;;;22.80;9.87;;;22.50;48.30;;;;;;4982806;28;47417;-69
2022/08/30 07:41:45;;;;;;;13.63;9.67;;;22.50;48.30;;;;;;4981513;28;45867;-69
2022/08/30 07:44:11;;;;;;;12.33;9.80;;;22.60;48.60;;;;;;4982659;28;46388;-72
2022/08/30 07:46:37;;;;;;;14.40;9.73;;;22.80;48.10;;;;;;4980833;28;46341;-69
2022/08/30 07:49:04;;;;;;;13.60;9.30;;;22.80;47.70;;;;;;4981820;28;45926;-71
2022/08/30 07:51:30;;;;;;;16.80;9.50;;;23.10;46.70;;;;;;4996857;28;46653;-69
2022/08/30 07:53:56;;;;;;;11.13;8.30;;;23.10;47.60;;;;;;4980048;28;46431;-69
2022/08/30 07:56:23;;;;;;;14.17;10.13;;;23.10;47.60;;;;;;4981399;28;46497;-70
2022/08/30 07:58:49;;;;;;;16.63;10.37;;;22.90;48.10;;;;;;4982212;28;46458;-70
2022/08/30 08:01:15;;;;;;;12.50;10.30;;;22.90;48.30;;;;;;4993083;28;46377;-70
2022/08/30 08:03:42;;;;;;;13.50;10.57;;;23.20;48.10;;;;;;4981283;28;47286;-71
2022/08/30 08:06:11;;;;;;;15.60;9.87;;;23.40;47.60;;;;;;4979465;28;46380;-70
2022/08/30 08:08:38;;;;;;;14.13;9.67;;;23.40;47.30;;;;;;4980557;28;46737;-69
2022/08/30 08:11:19;;;;;;;18.30;11.00;;;23.60;46.70;;;;;;4980507;28;46496;-69
2022/08/30 08:13:47;;;;;;;12.53;8.47;;;23.70;46.20;;;;;;4981607;28;47265;-71
2022/08/30 08:16:13;;;;;;;17.60;9.23;;;23.80;46.10;;;;;;4979524;28;46298;-71
2022/08/30 08:18:38;;;;;;;12.33;8.87;;;23.70;46.10;;;;;;4979702;28;46310;-72
2022/08/30 08:21:04;;;;;;;12.07;8.83;;;23.90;45.90;;;;;;4982474;28;46572;-71
2022/08/30 08:23:30;;;;;;;11.17;7.67;;;24.10;45.10;;;;;;4979467;28;47299;-71
2022/08/30 08:25:56;;;;;;;17.10;8.90;;;24.30;44.50;;;;;;4981341;28;46391;-70
2022/08/30 08:28:22;;;;;;;12.43;8.60;;;24.50;44.30;;;;;;4980125;28;46640;-70
2022/08/30 08:30:48;;;;;;;16.27;8.50;;;24.70;43.90;;;;;;4981855;28;46464;-70
2022/08/30 08:33:15;;;;;;;14.23;6.80;;;24.90;43.50;;;;;;4981102;28;46364;-70
2022/08/30 08:35:40;;;;;;;10.30;7.77;;;24.90;42.80;;;;;;4981593;28;46449;-71
2022/08/30 08:38:06;;;;;;;14.07;8.20;;;25.00;42.50;;;;;;4981479;28;46415;-70
2022/08/30 08:40:53;;;;;;;13.37;6.77;;;24.90;42.30;;;;;;4981002;28;46641;-70
2022/08/30 08:43:22;;;;;;;19.10;8.67;;;24.80;41.90;;;;;;4980191;28;47247;-69
2022/08/30 08:46:01;;;;;;;15.50;8.30;;;24.90;42.50;;;;;;4981609;28;46454;-71
2022/08/30 08:48:40;;;;;;;10.90;7.40;;;25.10;41.70;;;;;;4981685;28;46422;-69
2022/08/30 08:54:03;;;;;;;11.50;7.47;;;25.10;41.80;;;;;;4980418;28;46777;-70
2022/08/30 08:56:29;;;;;;;9.17;5.73;;;25.10;40.70;;;;;;4980717;28;46408;-69
2022/08/30 08:58:56;;;;;;;8.43;5.37;;;25.20;39.80;;;;;;4980304;28;46463;-70
2022/08/30 09:01:26;;;;;;;9.87;6.53;;;25.30;37.70;;;;;;4981477;28;46410;-70
2022/08/30 09:03:52;;;;;;;12.27;5.60;;;25.40;38.30;;;;;;4980973;28;46364;-69
2022/08/30 09:06:52;;;;;;;8.07;6.13;;;25.40;37.70;;;;;;4981862;28;46448;-69
2022/08/30 09:09:24;;;;;;;8.13;5.80;;;25.40;36.40;;;;;;4981087;28;46625;-71
2022/08/30 09:11:49;;;;;;;10.53;5.53;;;25.40;36.20;;;;;;4981398;28;46510;-71
2022/08/30 09:14:20;;;;;;;11.47;5.90;;;25.50;35.90;;;;;;4981807;28;46277;-69
2022/08/30 09:17:16;;;;;;;8.30;5.00;;;25.40;34.80;;;;;;4978608;28;46663;-70
2022/08/30 09:19:51;;;;;;;9.77;5.70;;;25.50;34.40;;;;;;4979136;28;46718;-70
2022/08/30 09:22:37;;;;;;;8.50;4.80;;;25.60;33.80;;;;;;4981529;28;46521;-71
2022/08/30 09:25:11;;;;;;;11.23;5.30;;;25.60;32.50;;;;;;4980372;28;46560;-71
2022/08/30 09:27:42;;;;;;;6.50;4.60;;;25.50;32.50;;;;;;4980681;28;46361;-70
2022/08/30 09:30:18;;;;;;;8.80;5.13;;;25.40;32.40;;;;;;4979923;28;46448;-70
2022/08/30 09:32:56;;;;;;;9.47;4.73;;;25.40;31.80;;;;;;4981429;28;46296;-71
2022/08/30 09:35:42;;;;;;;7.70;4.80;;;25.60;31.10;;;;;;4979599;28;48532;-72
2022/08/30 09:38:16;;;;;;;6.87;5.03;;;25.80;30.80;;;;;;4980742;28;45838;-69
2022/08/30 09:40:43;;;;;;;8.90;5.83;;;25.70;30.70;;;;;;4981057;28;46456;-70
2022/08/30 09:43:15;;;;;;;7.20;4.50;;;25.50;29.70;;;;;;4987779;28;46542;-70
2022/08/30 09:45:45;;;;;;;7.83;4.73;;;25.50;29.20;;;;;;4981779;28;47024;-70
2022/08/30 09:51:23;;;;;;;6.93;5.13;;;25.80;27.90;;;;;;4980339;28;46394;-69
2022/08/30 09:54:21;;;;;;;7.90;4.80;;;25.80;28.60;;;;;;4981133;28;46495;-71
2022/08/30 09:57:11;;;;;;;8.67;4.90;;;25.80;27.90;;;;;;4960973;28;47211;-72
2022/08/30 09:59:49;;;;;;;9.40;4.53;;;25.80;27.80;;;;;;4980285;28;45796;-71
2022/08/30 10:02:26;;;;;;;7.20;5.10;;;25.80;27.20;;;;;;4980984;28;46351;-70
2022/08/30 10:05:14;;;;;;;7.67;5.20;;;25.90;26.80;;;;;;4994873;28;46459;-71
2022/08/30 10:07:57;;;;;;;6.47;4.50;;;25.80;26.40;;;;;;4977739;28;46393;-69
2022/08/30 10:10:53;;;;;;;8.27;4.80;;;26.00;26.80;;;;;;4980488;28;46340;-70
2022/08/30 10:13:19;;;;;;;5.80;4.17;;;26.00;26.00;;;;;;4978766;28;46547;-69
2022/08/30 10:16:02;;;;;;;10.10;4.37;;;25.90;25.10;;;;;;4978034;28;46241;-69
2022/08/30 10:18:48;;;;;;;5.17;3.73;;;25.90;24.90;;;;;;4979437;28;47226;-71
2022/08/30 10:21:25;;;;;;;8.23;4.70;;;25.80;24.20;;;;;;4979781;28;46159;-72
2022/08/30 10:24:01;;;;;;;7.30;4.93;;;25.80;23.30;;;;;;4979847;28;46383;-71
2022/08/30 10:26:37;;;;;;;6.73;4.60;;;25.80;23.20;;;;;;4980794;28;46395;-70
2022/08/30 10:29:25;;;;;;;9.50;5.57;;;25.90;23.70;;;;;;4979770;28;47145;-71
2022/08/30 10:31:53;;;;;;;7.30;4.70;;;26.00;25.10;;;;;;4976953;28;46620;-70
2022/08/30 10:34:28;;;;;;;11.13;5.00;;;26.00;23.90;;;;;;4978823;28;46556;-71
2022/08/30 10:37:06;;;;;;;7.23;4.83;;;26.10;23.80;;;;;;4979656;28;46512;-70
2022/08/30 10:39:39;;;;;;;6.33;4.50;;;26.00;24.00;;;;;;4979122;28;46344;-70
2022/08/30 10:42:11;;;;;;;8.90;5.10;;;26.00;23.70;;;;;;4995217;28;46428;-71
2022/08/30 10:44:43;;;;;;;8.93;5.33;;;26.00;23.90;;;;;;4982783;28;46577;-70
2022/08/30 10:47:27;;;;;;;7.73;4.17;;;26.20;22.90;;;;;;4979974;28;46505;-70
2022/08/30 10:50:19;;;;;;;7.03;4.17;;;26.20;22.30;;;;;;4979816;28;47229;-71
2022/08/30 10:53:10;;;;;;;10.20;4.00;;;26.20;22.00;;;;;;4979427;28;47149;-70
2022/08/30 10:55:44;;;;;;;6.63;3.90;;;26.20;21.80;;;;;;4979912;28;46352;-71
2022/08/30 10:58:10;;;;;;;6.67;4.00;;;26.10;21.10;;;;;;4978657;28;46449;-72
2022/08/30 11:01:00;;;;;;;7.93;4.13;;;26.10;21.70;;;;;;4983203;28;47170;-71
2022/08/30 11:03:54;;;;;;;5.90;4.07;;;26.10;20.80;;;;;;4981259;28;46296;-71
2022/08/30 11:06:53;;;;;;;6.87;4.33;;;26.10;20.60;;;;;;4978499;28;46349;-70
2022/08/30 11:09:38;;;;;;;5.70;4.20;;;26.10;20.30;;;;;;4992591;28;45902;-72
2022/08/30 11:12:27;;;;;;;8.70;4.70;;;26.10;20.00;;;;;;4979238;28;47056;-70
2022/08/30 11:14:54;;;;;;;10.83;4.50;;;26.00;20.20;;;;;;4980694;28;46376;-71
2022/08/30 11:17:37;;;;;;;6.50;4.80;;;26.00;20.10;;;;;;4978926;28;46361;-71
2022/08/30 11:20:18;;;;;;;8.80;4.50;;;25.90;20.10;;;;;;4979709;28;46522;-69
2022/08/30 11:23:18;;;;;;;8.00;4.30;;;26.00;20.60;;;;;;4980014;28;47529;-72
2022/08/30 11:25:49;;;;;;;7.23;4.63;;;26.10;20.50;;;;;;4977995;28;46340;-70
2022/08/30 11:28:44;;;;;;;9.40;4.67;;;26.20;20.40;;;;;;4980713;28;46405;-70
2022/08/30 11:31:17;;;;;;;5.93;4.23;;;26.00;20.10;;;;;;4959819;28;46512;-70
2022/08/30 11:33:47;;;;;;;9.20;5.07;;;26.00;20.10;;;;;;4980545;28;47476;-71
2022/08/30 11:36:27;;;;;;;6.83;4.43;;;26.10;20.20;;;;;;4982952;28;46341;-70
2022/08/30 11:38:53;;;;;;;6.87;4.40;;;26.10;20.20;;;;;;4981375;28;46404;-71
2022/08/30 11:41:44;;;;;;;6.50;4.87;;;26.00;18.70;;;;;;4982372;28;46383;-71
2022/08/30 11:44:27;;;;;;;9.40;4.40;;;26.00;19.30;;;;;;4980251;28;48372;-70
2022/08/30 11:46:55;;;;;;;6.53;3.93;;;25.90;19.20;;;;;;4981205;28;46477;-70
2022/08/30 11:49:21;;;;;;;7.70;4.33;;;26.10;19.50;;;;;;4982984;28;46233;-70
2022/08/30 11:52:04;;;;;;;8.87;4.80;;;26.00;18.80;;;;;;4981093;28;46602;-70
2022/08/30 11:54:52;;;;;;;6.00;4.33;;;26.00;18.80;;;;;;4980310;28;46551;-69
2022/08/30 11:57:20;;;;;;;6.87;4.70;;;26.10;18.60;;;;;;4980392;28;46391;-70
2022/08/30 11:59:57;;;;;;;7.43;4.20;;;26.10;18.70;;;;;;4993467;28;45909;-71
2022/08/30 12:02:44;;;;;;;8.70;4.10;;;26.20;18.40;;;;;;4977631;28;46338;-71
2022/08/30 12:05:39;;;;;;;7.53;4.37;;;26.30;18.10;;;;;;4976144;28;46444;-70
2022/08/30 12:08:07;;;;;;;6.73;4.63;;;26.20;18.20;;;;;;4974109;28;46967;-70
2022/08/30 12:10:41;;;;;;;10.03;4.47;;;26.30;18.30;;;;;;4981771;28;46228;-69
2022/08/30 12:13:08;;;;;;;6.70;4.80;;;26.20;18.40;;;;;;4980780;28;46491;-71
2022/08/30 12:16:01;;;;;;;7.70;4.70;;;26.30;18.40;;;;;;4981338;28;46966;-70
2022/08/30 12:19:00;;;;;;;12.53;5.03;;;26.40;18.30;;;;;;4978457;28;46417;-72
2022/08/30 12:21:31;;;;;;;9.77;4.70;;;26.40;17.80;;;;;;4981465;28;46399;-70
2022/08/30 12:24:17;;;;;;;18.40;5.27;;;26.40;18.60;;;;;;4984554;28;46650;-71
2022/08/30 12:26:45;;;;;;;7.83;4.97;;;26.60;18.50;;;;;;4979842;28;46464;-70
2022/08/30 12:29:19;;;;;;;7.77;5.13;;;26.60;18.90;;;;;;4978357;28;46655;-69
2022/08/30 12:31:45;;;;;;;6.63;4.80;;;26.80;17.80;;;;;;4977697;28;46842;-72
2022/08/30 12:34:26;;;;;;;10.67;5.33;;;26.70;18.00;;;;;;4977737;28;46468;-71
2022/08/30 12:37:06;;;;;;;7.37;4.40;;;26.60;17.90;;;;;;4990437;28;47860;-71
2022/08/30 12:39:38;;;;;;;9.50;5.47;;;26.50;17.90;;;;;;4975481;28;46494;-72
2022/08/30 12:42:25;;;;;;;7.00;4.70;;;26.30;17.90;;;;;;4979534;28;46527;-70
2022/08/30 12:44:54;;;;;;;8.50;4.90;;;26.30;17.90;;;;;;4978263;28;46447;-70
2022/08/30 12:47:32;;;;;;;8.27;4.77;;;26.50;18.20;;;;;;4975850;28;46411;-71
2022/08/30 12:49:58;;;;;;;7.53;4.60;;;26.50;18.50;;;;;;4978323;28;46368;-71
2022/08/30 12:52:33;;;;;;;8.90;5.80;;;26.40;18.60;;;;;;4978244;28;46458;-71
2022/08/30 12:55:28;;;;;;;13.13;6.20;;;26.50;18.30;;;;;;4978557;28;46423;-72
2022/08/30 12:58:02;;;;;;;8.90;5.30;;;26.60;18.20;;;;;;4975225;28;46725;-69
2022/08/30 13:00:30;;;;;;;9.70;6.13;;;26.60;17.60;;;;;;4980219;28;46443;-71
2022/08/30 13:03:01;;;;;;;9.73;5.77;;;26.70;17.80;;;;;;4975076;28;45912;-71